St Charlotte — FWBM — position and weather

sailwx.info

Track history (hours):
 
Tides and Currents Weather Stations Pressure Air Temp Water Temp Dewpoint Dewpoint Depression Visibility Wind Speed Wind Dir Waves Ship Positions

St Charlotte

Last reported at 2014-Jul-24 14:09 UTC. Time now 2014-Jul-24 15:24 UTC.
Position N 54°03' E 009°18'.

Length 129 m; draft 8.2 m.

Type: Ship. MMSI: 228331700.

Date/timePositionNaut miles runAvg speedWind from/ knotsBaromVisibWave heightAir tempDewpointWater temp
2014-Jul-24 14:09N 54°03' E 009°18'0 0.5
2014-Jul-24 13:30N 54°03' E 009°18'4 4.7
2014-Jul-24 12:33N 53°58' E 009°16'6 5.9
2014-Jul-24 11:30N 53°54' E 009°09'0 0.2
2014-Jul-24 10:29N 53°54' E 009°08'1 1.5
2014-Jul-24 09:33N 53°53' E 009°06'0 0.2
2014-Jul-24 08:33N 53°53' E 009°07'7 6.9
2014-Jul-24 07:33N 53°51' E 008°56'1312.8
2014-Jul-24 06:33N 53°57' E 008°37'1413.7
2014-Jul-24 05:33N 53°60' E 008°14'1211.8
2014-Jul-24 04:33N 53°55' E 007°56'8 8.4
2014-Jul-24 03:33N 53°49' E 008°06'1313.2
2014-Jul-24 02:34N 53°40' E 008°22'1111.2
2014-Jul-24 01:33N 53°31' E 008°32'10 0.3
2014-Jul-22 16:34N 53°21' E 008°30'7 7.4
2014-Jul-22 15:34N 53°28' E 008°30'8 7.9
2014-Jul-22 14:34N 53°36' E 008°31'1312.5
2014-Jul-22 13:33N 53°44' E 008°15'1212.3
2014-Jul-22 12:33N 53°51' E 007°58'1311.3
2014-Jul-22 11:26N 53°54' E 007°37'8 9.5
2014-Jul-22 10:33N 53°53' E 007°23'19 9.2
2014-Jul-22 08:31N 53°49' E 006°52'18 9.1
2014-Jul-22 06:33N 53°45' E 006°22'10 9.6
2014-Jul-22 05:33N 53°42' E 006°07'1010.4
2014-Jul-22 04:33N 53°38' E 005°50'1110.6
2014-Jul-22 03:34N 53°35' E 005°33'1110.7
2014-Jul-22 02:33N 53°32' E 005°16'1110.9
2014-Jul-22 01:33N 53°28' E 004°59'1010.4
2014-Jul-22 00:34N 53°23' E 004°43'1111.1
2014-Jul-21 23:33N 53°13' E 004°35'1211.2
2014-Jul-21 22:31N 53°03' E 004°25'1111.0
2014-Jul-21 21:33N 52°54' E 004°17'1211.1
2014-Jul-21 20:28N 52°44' E 004°06'211.0
2014-Jul-21 20:17N 52°42' E 004°04'811.0
2014-Jul-21 19:33N 52°37' E 003°54'1110.9
2014-Jul-21 18:33N 52°29' E 003°41'7210.2
2014-Jul-21 11:29N 51°27' E 002°43'5 4.5
2014-Jul-21 10:25N 51°25' E 002°36'0 0.1
2014-Jul-21 09:22N 51°25' E 002°36'0 0.0
2014-Jul-21 08:28N 51°25' E 002°36'0 0.1
2014-Jul-21 07:25N 51°25' E 002°36'0 0.0
2014-Jul-21 06:25N 51°25' E 002°35'0 0.0
2014-Jul-21 05:31N 51°25' E 002°35'0 0.1
2014-Jul-21 04:25N 51°25' E 002°35'0 0.0
2014-Jul-21 03:31N 51°25' E 002°35'0 0.0
2014-Jul-21 02:28N 51°25' E 002°35'0 0.0
2014-Jul-21 01:34N 51°25' E 002°35'5 4.6
2014-Jul-21 00:33N 51°23' E 002°42'1110.9
2014-Jul-20 23:33N 51°24' E 002°60'1514.6
2014-Jul-20 22:33N 51°25' E 003°23'1211.7
2014-Jul-20 21:34N 51°26' E 003°42'10 9.9
2014-Jul-20 20:33N 51°24' E 003°57'8 8.1
2014-Jul-20 19:34N 51°24' E 004°10'5 5.2
2014-Jul-20 18:33N 51°21' E 004°17'2 2.1
2014-Jul-20 17:34N 51°19' E 004°19'2 2.3
2014-Jul-20 16:31N 51°17' E 004°20'0 0.0
2014-Jul-20 15:31N 51°17' E 004°20'0 0.0
2014-Jul-20 14:31N 51°17' E 004°20'0 0.0
2014-Jul-20 13:28N 51°17' E 004°20'0 0.0
2014-Jul-20 12:31N 51°17' E 004°20'0 0.0
2014-Jul-20 11:28N 51°17' E 004°20'0 0.0
2014-Jul-20 10:31N 51°17' E 004°20'0 0.0
2014-Jul-20 09:31N 51°17' E 004°20'0 0.0
2014-Jul-20 08:31N 51°17' E 004°20'0 0.0
2014-Jul-20 07:31N 51°17' E 004°20'0 0.0
2014-Jul-20 06:28N 51°17' E 004°20'0 0.0
2014-Jul-20 05:31N 51°17' E 004°20'0 0.0
2014-Jul-20 04:25N 51°17' E 004°20'0 0.0
2014-Jul-20 03:22N 51°17' E 004°20'0 0.0
2014-Jul-20 02:31N 51°17' E 004°20'0 0.0
2014-Jul-20 01:31N 51°17' E 004°20'0 0.0
2014-Jul-20 00:25N 51°17' E 004°20'0 0.0
2014-Jul-19 23:28N 51°17' E 004°20'0 0.0
2014-Jul-19 22:31N 51°17' E 004°20'0 0.0
2014-Jul-19 21:31N 51°17' E 004°20'0 0.0
2014-Jul-19 20:28N 51°17' E 004°20'0 0.0
2014-Jul-19 19:22N 51°17' E 004°20'0 0.0
2014-Jul-19 18:31N 51°17' E 004°20'0 0.0
2014-Jul-19 17:31N 51°17' E 004°20'0 0.0
2014-Jul-19 16:33N 51°17' E 004°20'4 4.5
2014-Jul-19 15:34N 51°21' E 004°17'0 0.0
2014-Jul-19 14:34N 51°21' E 004°17'2 2.5
2014-Jul-19 13:33N 51°22' E 004°14'7 7.5
2014-Jul-19 12:33N 51°24' E 004°02'7 7.1
2014-Jul-19 11:33N 51°21' E 003°52'10 9.7
2014-Jul-19 10:33N 51°26' E 003°39'10 9.9
2014-Jul-19 09:33N 51°24' E 003°23'1111.4
2014-Jul-19 08:33N 51°24' E 003°05'1212.1
2014-Jul-19 07:33N 51°22' E 002°46'8 6.3
2014-Jul-19 06:13N 51°20' E 002°33'0 0.1
2014-Jul-19 05:31N 51°20' E 002°33'0 0.0
2014-Jul-19 04:31N 51°20' E 002°33'0 0.2
2014-Jul-19 03:31N 51°20' E 002°32'0 0.1
2014-Jul-19 02:28N 51°20' E 002°32'0 0.0
2014-Jul-19 01:31N 51°20' E 002°32'0 0.0
2014-Jul-19 00:31N 51°20' E 002°32'0 0.0
2014-Jul-18 23:31N 51°20' E 002°32'0 0.2
2014-Jul-18 22:22N 51°20' E 002°33'0 0.1
2014-Jul-18 21:31N 51°20' E 002°33'0 0.1
2014-Jul-18 20:31N 51°20' E 002°32'0 0.0
2014-Jul-18 19:33N 51°20' E 002°32'5 5.1
2014-Jul-18 18:32N 51°20' E 002°24'1111.6
2014-Jul-18 17:33N 51°15' E 002°08'1212.4
2014-Jul-18 16:33N 51°09' E 001°51'1313.2
2014-Jul-18 15:33N 50°60' E 001°36'1312.6
2014-Jul-18 14:33N 50°49' E 001°25'1211.7
2014-Jul-18 13:33N 50°39' E 001°16'1313.3
2014-Jul-18 12:33N 50°30' E 001°01'1413.7
2014-Jul-18 11:33N 50°21' E 000°43'1413.1
2014-Jul-18 10:29N 50°11' E 000°29'1312.6
2014-Jul-18 09:27N 50°01' E 000°17'1412.3
2014-Jul-18 08:18N 49°49' E 000°04'912.1
2014-Jul-18 07:33N 49°42' W 000°04'1211.7
2014-Jul-18 06:33N 49°30' E 000°01'6 6.1
2014-Jul-18 05:33N 49°29' E 000°10'0 0.4
2014-Jul-18 04:31N 49°29' E 000°11'0 0.0
2014-Jul-18 03:31N 49°29' E 000°11'0 0.0
2014-Jul-18 02:31N 49°29' E 000°11'0 0.0
2014-Jul-18 01:31N 49°29' E 000°11'0 0.0
2014-Jul-18 00:31N 49°29' E 000°11'0 0.0
2014-Jul-17 23:31N 49°29' E 000°11'0 0.0
2014-Jul-17 22:31N 49°29' E 000°11'0 0.0
2014-Jul-17 21:31N 49°29' E 000°11'0 0.0
2014-Jul-17 20:31N 49°29' E 000°11'0 0.0
2014-Jul-17 14:33N 49°29' E 000°11'1 0.5
2014-Jul-17 13:34N 49°29' E 000°10'4 4.3
2014-Jul-17 12:34N 49°29' E 000°04'1110.5
2014-Jul-17 11:34N 49°33' W 000°11'1010.1
2014-Jul-17 10:34N 49°37' W 000°26'1211.6
2014-Jul-17 09:34N 49°41' W 000°42'1211.6
2014-Jul-17 08:31N 49°46' W 000°59'1111.1
2014-Jul-17 07:33N 49°50' W 001°15'1110.2
2014-Jul-17 06:29N 49°52' W 001°31'11 9.6
2014-Jul-17 05:24N 49°51' W 001°48'9 9.3
2014-Jul-17 04:24N 49°52' W 002°02'8 8.6
2014-Jul-17 03:29N 49°52' W 002°14'1310.4
2014-Jul-17 02:11N 49°50' W 002°35'711.2
2014-Jul-17 01:32N 49°48' W 002°45'15510.8
2014-Jul-16 11:16N 47°54' W 005°23'1311.6
2014-Jul-16 10:11N 47°42' W 005°16'811.6
2014-Jul-16 09:28N 47°34' W 005°11'2811.9
2014-Jul-16 07:05N 47°06' W 005°08'711.8
2014-Jul-16 06:28N 46°59' W 005°06'1312.2
2014-Jul-16 05:22N 46°46' W 004°60'  
Track history (hours):
 
Tides and Currents Weather Stations Pressure Air Temp Water Temp Dewpoint Dewpoint Depression Visibility Wind Speed Wind Dir Waves Ship Positions

St Charlotte

Last reported at 2014-Jul-24 14:09 UTC. Time now 2014-Jul-24 15:24 UTC.
Position N 54°03' E 009°18'.

Length 129 m; draft 8.2 m.

Type: Ship. MMSI: 228331700.

Date/timePositionNaut miles runAvg speedWind from/ knotsBaromVisibWave heightAir tempDewpointWater temp
2014-Jul-24 14:09N 54°03' E 009°18'0 0.5
2014-Jul-24 13:30N 54°03' E 009°18'4 4.7
2014-Jul-24 12:33N 53°58' E 009°16'6 5.9
2014-Jul-24 11:30N 53°54' E 009°09'0 0.2
2014-Jul-24 10:29N 53°54' E 009°08'1 1.5
2014-Jul-24 09:33N 53°53' E 009°06'0 0.2
2014-Jul-24 08:33N 53°53' E 009°07'7 6.9
2014-Jul-24 07:33N 53°51' E 008°56'1312.8
2014-Jul-24 06:33N 53°57' E 008°37'1413.7
2014-Jul-24 05:33N 53°60' E 008°14'1211.8
2014-Jul-24 04:33N 53°55' E 007°56'8 8.4
2014-Jul-24 03:33N 53°49' E 008°06'1313.2
2014-Jul-24 02:34N 53°40' E 008°22'1111.2
2014-Jul-24 01:33N 53°31' E 008°32'10 0.3
2014-Jul-22 16:34N 53°21' E 008°30'7 7.4
2014-Jul-22 15:34N 53°28' E 008°30'8 7.9
2014-Jul-22 14:34N 53°36' E 008°31'1312.5
2014-Jul-22 13:33N 53°44' E 008°15'1212.3
2014-Jul-22 12:33N 53°51' E 007°58'1311.3
2014-Jul-22 11:26N 53°54' E 007°37'8 9.5
2014-Jul-22 10:33N 53°53' E 007°23'19 9.2
2014-Jul-22 08:31N 53°49' E 006°52'18 9.1
2014-Jul-22 06:33N 53°45' E 006°22'10 9.6
2014-Jul-22 05:33N 53°42' E 006°07'1010.4
2014-Jul-22 04:33N 53°38' E 005°50'1110.6
2014-Jul-22 03:34N 53°35' E 005°33'1110.7
2014-Jul-22 02:33N 53°32' E 005°16'1110.9
2014-Jul-22 01:33N 53°28' E 004°59'1010.4
2014-Jul-22 00:34N 53°23' E 004°43'1111.1
2014-Jul-21 23:33N 53°13' E 004°35'1211.2
2014-Jul-21 22:31N 53°03' E 004°25'1111.0
2014-Jul-21 21:33N 52°54' E 004°17'1211.1
2014-Jul-21 20:28N 52°44' E 004°06'211.0
2014-Jul-21 20:17N 52°42' E 004°04'811.0
2014-Jul-21 19:33N 52°37' E 003°54'1110.9
2014-Jul-21 18:33N 52°29' E 003°41'7210.2
2014-Jul-21 11:29N 51°27' E 002°43'5 4.5
2014-Jul-21 10:25N 51°25' E 002°36'0 0.1
2014-Jul-21 09:22N 51°25' E 002°36'0 0.0
2014-Jul-21 08:28N 51°25' E 002°36'0 0.1
2014-Jul-21 07:25N 51°25' E 002°36'0 0.0
2014-Jul-21 06:25N 51°25' E 002°35'0 0.0
2014-Jul-21 05:31N 51°25' E 002°35'0 0.1
2014-Jul-21 04:25N 51°25' E 002°35'0 0.0
2014-Jul-21 03:31N 51°25' E 002°35'0 0.0
2014-Jul-21 02:28N 51°25' E 002°35'0 0.0
2014-Jul-21 01:34N 51°25' E 002°35'5 4.6
2014-Jul-21 00:33N 51°23' E 002°42'1110.9
2014-Jul-20 23:33N 51°24' E 002°60'1514.6
2014-Jul-20 22:33N 51°25' E 003°23'1211.7
2014-Jul-20 21:34N 51°26' E 003°42'10 9.9
2014-Jul-20 20:33N 51°24' E 003°57'8 8.1
2014-Jul-20 19:34N 51°24' E 004°10'5 5.2
2014-Jul-20 18:33N 51°21' E 004°17'2 2.1
2014-Jul-20 17:34N 51°19' E 004°19'2 2.3
2014-Jul-20 16:31N 51°17' E 004°20'0 0.0
2014-Jul-20 15:31N 51°17' E 004°20'0 0.0
2014-Jul-20 14:31N 51°17' E 004°20'0 0.0
2014-Jul-20 13:28N 51°17' E 004°20'0 0.0
2014-Jul-20 12:31N 51°17' E 004°20'0 0.0
2014-Jul-20 11:28N 51°17' E 004°20'0 0.0
2014-Jul-20 10:31N 51°17' E 004°20'0 0.0
2014-Jul-20 09:31N 51°17' E 004°20'0 0.0
2014-Jul-20 08:31N 51°17' E 004°20'0 0.0
2014-Jul-20 07:31N 51°17' E 004°20'0 0.0
2014-Jul-20 06:28N 51°17' E 004°20'0 0.0
2014-Jul-20 05:31N 51°17' E 004°20'0 0.0
2014-Jul-20 04:25N 51°17' E 004°20'0 0.0
2014-Jul-20 03:22N 51°17' E 004°20'0 0.0
2014-Jul-20 02:31N 51°17' E 004°20'0 0.0
2014-Jul-20 01:31N 51°17' E 004°20'0 0.0
2014-Jul-20 00:25N 51°17' E 004°20'0 0.0
2014-Jul-19 23:28N 51°17' E 004°20'0 0.0
2014-Jul-19 22:31N 51°17' E 004°20'0 0.0
2014-Jul-19 21:31N 51°17' E 004°20'0 0.0
2014-Jul-19 20:28N 51°17' E 004°20'0 0.0
2014-Jul-19 19:22N 51°17' E 004°20'0 0.0
2014-Jul-19 18:31N 51°17' E 004°20'0 0.0
2014-Jul-19 17:31N 51°17' E 004°20'0 0.0
2014-Jul-19 16:33N 51°17' E 004°20'4 4.5
2014-Jul-19 15:34N 51°21' E 004°17'0 0.0
2014-Jul-19 14:34N 51°21' E 004°17'2 2.5
2014-Jul-19 13:33N 51°22' E 004°14'7 7.5
2014-Jul-19 12:33N 51°24' E 004°02'7 7.1
2014-Jul-19 11:33N 51°21' E 003°52'10 9.7
2014-Jul-19 10:33N 51°26' E 003°39'10 9.9
2014-Jul-19 09:33N 51°24' E 003°23'1111.4
2014-Jul-19 08:33N 51°24' E 003°05'1212.1
2014-Jul-19 07:33N 51°22' E 002°46'8 6.3
2014-Jul-19 06:13N 51°20' E 002°33'0 0.1
2014-Jul-19 05:31N 51°20' E 002°33'0 0.0
2014-Jul-19 04:31N 51°20' E 002°33'0 0.2
2014-Jul-19 03:31N 51°20' E 002°32'0 0.1
2014-Jul-19 02:28N 51°20' E 002°32'0 0.0
2014-Jul-19 01:31N 51°20' E 002°32'0 0.0
2014-Jul-19 00:31N 51°20' E 002°32'0 0.0
2014-Jul-18 23:31N 51°20' E 002°32'0 0.2
2014-Jul-18 22:22N 51°20' E 002°33'0 0.1
2014-Jul-18 21:31N 51°20' E 002°33'0 0.1
2014-Jul-18 20:31N 51°20' E 002°32'0 0.0
2014-Jul-18 19:33N 51°20' E 002°32'5 5.1
2014-Jul-18 18:32N 51°20' E 002°24'1111.6
2014-Jul-18 17:33N 51°15' E 002°08'1212.4
2014-Jul-18 16:33N 51°09' E 001°51'1313.2
2014-Jul-18 15:33N 50°60' E 001°36'1312.6
2014-Jul-18 14:33N 50°49' E 001°25'1211.7
2014-Jul-18 13:33N 50°39' E 001°16'1313.3
2014-Jul-18 12:33N 50°30' E 001°01'1413.7
2014-Jul-18 11:33N 50°21' E 000°43'1413.1
2014-Jul-18 10:29N 50°11' E 000°29'1312.6
2014-Jul-18 09:27N 50°01' E 000°17'1412.3
2014-Jul-18 08:18N 49°49' E 000°04'912.1
2014-Jul-18 07:33N 49°42' W 000°04'1211.7
2014-Jul-18 06:33N 49°30' E 000°01'6 6.1
2014-Jul-18 05:33N 49°29' E 000°10'0 0.4
2014-Jul-18 04:31N 49°29' E 000°11'0 0.0
2014-Jul-18 03:31N 49°29' E 000°11'0 0.0
2014-Jul-18 02:31N 49°29' E 000°11'0 0.0
2014-Jul-18 01:31N 49°29' E 000°11'0 0.0
2014-Jul-18 00:31N 49°29' E 000°11'0 0.0
2014-Jul-17 23:31N 49°29' E 000°11'0 0.0
2014-Jul-17 22:31N 49°29' E 000°11'0 0.0
2014-Jul-17 21:31N 49°29' E 000°11'0 0.0
2014-Jul-17 20:31N 49°29' E 000°11'0 0.0
2014-Jul-17 14:33N 49°29' E 000°11'1 0.5
2014-Jul-17 13:34N 49°29' E 000°10'4 4.3
2014-Jul-17 12:34N 49°29' E 000°04'1110.5
2014-Jul-17 11:34N 49°33' W 000°11'1010.1
2014-Jul-17 10:34N 49°37' W 000°26'1211.6
2014-Jul-17 09:34N 49°41' W 000°42'1211.6
2014-Jul-17 08:31N 49°46' W 000°59'1111.1
2014-Jul-17 07:33N 49°50' W 001°15'1110.2
2014-Jul-17 06:29N 49°52' W 001°31'11 9.6
2014-Jul-17 05:24N 49°51' W 001°48'9 9.3
2014-Jul-17 04:24N 49°52' W 002°02'8 8.6
2014-Jul-17 03:29N 49°52' W 002°14'1310.4
2014-Jul-17 02:11N 49°50' W 002°35'711.2
2014-Jul-17 01:32N 49°48' W 002°45'15510.8
2014-Jul-16 11:16N 47°54' W 005°23'1311.6
2014-Jul-16 10:11N 47°42' W 005°16'811.6
2014-Jul-16 09:28N 47°34' W 005°11'2811.9
2014-Jul-16 07:05N 47°06' W 005°08'711.8
2014-Jul-16 06:28N 46°59' W 005°06'1312.2
2014-Jul-16 05:22N 46°46' W 004°60'  

Dump ship's entire track history